Terminal Aerodrome Forecast
Issued by NWS Springfield, MO

Home | Current Version | Previous Version | Text Only | Print | Product List | Glossary On
Versions: 1 2 3 4 5 6 7 8 9 10 11 12 13 14 15 16 17 18
834
FTUS43 KSGF 232320
TAFSGF
TAF
KSGF 232320Z 2400/2424 17016G25KT P6SM SKC
     FM240300 16017G25KT P6SM SCT250 WS020/18045KT
     FM241200 17018G29KT P6SM BKN100
     FM241800 18019G30KT P6SM VCSH OVC050
      TEMPO 2421/2424 5SM -TSRA OVC025CB=

USA.gov is the U.S. government's official web portal to all federal, state and local government web resources and services.